Forside
METAR-TAF:

METAR-TAF

Lufthavne :

Brighton, England

Breddekreds: 50-50N, længdekreds: 000-17W, højde: 2 m

Aktuelle vejr

Denne rapport blev lavet for 30 minutter siden, kl. 13:20 UTC
Vind 11 kt fra nordøst
Temperatur 11°C
Fugtighed 50%
Tryk 1030 hPa
Sigt 10 km eller mere
ingen skyer under 1500m og ingen cumulonimbus

METAR: EGKA 311320Z 05011KT CAVOK 11/01 Q1030

Tid: 14:50 (13:50 UTC)

Vejrudsigter

Denne rapport blev lavet for 2 timer og 50 minutter siden, kl. 11:00 UTC
Foreløbig gælder fra 31 på 12 UTC til 31 på 18 UTC
Vind 14 kt fra nordøst
Sigt 10 km eller mere
Nogle få skyer i en højde af 3000 ft

TAF: EGKA 311100Z 3112/3118 04014KT 9999 FEW030

Vejrobservationer og prognoser fra mere end 4000 lufthavne (METAR og TAF).

De gule og røde prikker repræsenterer de meteorologiske stationer.

Flyt musen over at se navnet på stationen.

Så klik over at se vejr observationer og prognoser.

At skifte det kort: Klik på de grønne knapper med et sort kors for at zoome ind; på den grønne knap med en bindestreg for at zoome ud; eller på de grønne pile for tilstødende kort.


METAR-TAF: